Time;durP1;ratioP1;P1;durP2;ratioP2;P2;SDS_P1;SDS_P2;PMS_P1;PMS_P2;Temp;Humidity;BMP_temperature;BMP_pressure;BME280_temperature;BME280_humidity;BME280_pressure;Samples;Min_cycle;Max_cycle;Signal;HPM_P1;HPM_P2
2022/07/22 00:00:33;;;;;;;7.35;2.25;;;17.80;99.90;;;;;;4834118;29;37840;-58
2022/07/22 00:03:00;;;;;;;12.70;3.17;;;17.80;99.90;;;;;;4835431;29;39169;-58
2022/07/22 00:05:27;;;;;;;12.23;2.53;;;17.80;99.90;;;;;;4835187;29;36616;-58
2022/07/22 00:07:55;;;;;;;9.20;3.03;;;17.80;99.90;;;;;;4834164;29;36363;-58
2022/07/22 00:10:24;;;;;;;9.57;3.03;;;17.80;99.90;;;;;;4835669;29;38740;-58
2022/07/22 00:12:55;;;;;;;9.95;2.72;;;17.80;99.90;;;;;;4834692;29;37141;-58
2022/07/22 00:15:22;;;;;;;9.32;2.67;;;17.70;99.90;;;;;;4835716;29;36407;-58
2022/07/22 00:17:49;;;;;;;8.85;2.40;;;17.70;99.90;;;;;;4834814;29;38459;-58
2022/07/22 00:20:19;;;;;;;11.57;2.88;;;17.70;99.90;;;;;;4834097;29;37182;-58
2022/07/22 00:22:46;;;;;;;10.77;2.80;;;17.70;99.90;;;;;;4834718;29;37176;-58
2022/07/22 00:25:14;;;;;;;14.27;3.28;;;17.70;99.90;;;;;;4833681;29;35312;-58
2022/07/22 00:27:42;;;;;;;11.38;2.45;;;17.70;99.90;;;;;;4833029;29;38459;-58
2022/07/22 00:30:11;;;;;;;8.90;3.05;;;17.70;99.90;;;;;;4834111;29;38931;-58
2022/07/22 00:32:38;;;;;;;9.98;3.30;;;17.60;99.90;;;;;;4834626;29;37417;-58
2022/07/22 00:35:07;;;;;;;12.50;2.97;;;17.70;99.90;;;;;;4834949;29;36734;-58
2022/07/22 00:37:34;;;;;;;10.95;2.63;;;17.60;99.90;;;;;;4834240;29;39275;-58
2022/07/22 00:40:02;;;;;;;7.80;2.05;;;17.60;99.90;;;;;;4835654;29;37346;-59
2022/07/22 00:42:29;;;;;;;8.23;2.08;;;17.60;99.90;;;;;;4834058;29;38818;-58
2022/07/22 00:44:58;;;;;;;8.90;2.35;;;17.60;99.90;;;;;;4834468;29;36814;-58
2022/07/22 00:47:25;;;;;;;9.88;2.90;;;17.60;99.90;;;;;;4835143;29;37636;-58
2022/07/22 00:49:53;;;;;;;4.82;2.00;;;17.50;99.90;;;;;;4833767;29;36688;-58
2022/07/22 00:52:23;;;;;;;10.52;2.33;;;17.50;99.90;;;;;;4833157;29;37614;-58
2022/07/22 00:54:51;;;;;;;8.05;2.15;;;17.50;99.90;;;;;;4835348;29;38461;-58
2022/07/22 00:57:21;;;;;;;8.15;2.33;;;17.40;99.90;;;;;;4835684;29;37291;-58
2022/07/22 00:59:48;;;;;;;8.73;2.08;;;17.40;99.90;;;;;;4835243;29;37640;-58
2022/07/22 01:02:17;;;;;;;7.00;2.00;;;17.50;99.90;;;;;;4833014;29;37360;-58
2022/07/22 01:04:44;;;;;;;7.15;1.90;;;17.50;99.90;;;;;;4833256;29;36937;-58
2022/07/22 01:07:12;;;;;;;10.68;3.05;;;17.40;99.90;;;;;;4832968;29;37210;-58
2022/07/22 01:09:43;;;;;;;5.95;1.67;;;17.40;99.90;;;;;;4835368;29;37520;-59
2022/07/22 01:12:11;;;;;;;12.35;2.15;;;17.40;99.90;;;;;;4833579;29;38245;-58
2022/07/22 01:14:38;;;;;;;7.45;2.47;;;17.40;99.90;;;;;;4835600;29;36906;-58
2022/07/22 01:17:05;;;;;;;8.13;1.95;;;17.30;99.90;;;;;;4834579;29;37539;-59
2022/07/22 01:19:38;;;;;;;9.82;2.70;;;17.30;99.90;;;;;;4837475;29;37847;-58
2022/07/22 01:22:07;;;;;;;8.13;2.00;;;17.30;99.90;;;;;;4836103;29;36312;-58
2022/07/22 01:24:38;;;;;;;10.43;2.58;;;17.20;99.90;;;;;;4837116;29;36519;-58
2022/07/22 01:27:06;;;;;;;6.50;1.95;;;17.20;99.90;;;;;;4837420;29;36302;-58
2022/07/22 01:29:34;;;;;;;9.73;2.58;;;17.20;99.90;;;;;;4837060;29;38326;-58
2022/07/22 01:32:01;;;;;;;8.27;2.10;;;17.30;99.90;;;;;;4838118;29;39792;-58
2022/07/22 01:34:28;;;;;;;6.63;2.10;;;17.20;99.90;;;;;;4836609;29;35411;-58
2022/07/22 01:36:56;;;;;;;11.13;2.42;;;17.20;99.90;;;;;;4836045;29;37831;-58
2022/07/22 01:39:25;;;;;;;9.70;2.22;;;17.20;99.90;;;;;;4837451;29;39572;-58
2022/07/22 01:41:52;;;;;;;7.85;1.88;;;17.20;99.90;;;;;;4837830;29;38909;-58
2022/07/22 01:44:19;;;;;;;7.32;2.05;;;17.20;99.90;;;;;;4835650;29;35362;-58
2022/07/22 01:46:46;;;;;;;5.90;1.52;;;17.20;99.90;;;;;;4836697;29;37593;-58
2022/07/22 01:49:17;;;;;;;9.20;2.25;;;17.20;99.90;;;;;;4837154;29;37731;-58
2022/07/22 01:51:44;;;;;;;6.35;1.50;;;17.20;99.90;;;;;;4835021;29;39106;-58
2022/07/22 01:54:12;;;;;;;7.07;1.67;;;17.20;99.90;;;;;;4836497;29;36830;-58
2022/07/22 01:56:41;;;;;;;6.30;1.60;;;17.10;99.90;;;;;;4835022;29;36409;-58
2022/07/22 01:59:08;;;;;;;6.82;1.77;;;17.10;99.90;;;;;;4836468;29;37737;-58
2022/07/22 02:01:35;;;;;;;6.47;1.70;;;17.10;99.90;;;;;;4836694;29;36071;-58
2022/07/22 02:04:03;;;;;;;8.02;1.98;;;17.10;99.90;;;;;;4836838;29;37296;-58
2022/07/22 02:06:31;;;;;;;9.02;2.08;;;17.10;99.90;;;;;;4836463;29;37334;-58
2022/07/22 02:08:58;;;;;;;8.35;1.63;;;17.00;99.90;;;;;;4836496;29;37370;-59
2022/07/22 02:11:26;;;;;;;7.20;1.77;;;17.00;99.90;;;;;;4836714;29;37533;-58
2022/07/22 02:13:54;;;;;;;6.60;1.70;;;17.00;99.90;;;;;;4834487;29;36555;-58
2022/07/22 02:16:22;;;;;;;5.30;1.83;;;17.00;99.90;;;;;;4837390;29;38177;-58
2022/07/22 02:18:50;;;;;;;8.07;2.10;;;17.00;99.90;;;;;;4837501;29;37608;-58
2022/07/22 02:21:18;;;;;;;7.70;1.88;;;17.00;99.90;;;;;;4838631;29;36195;-58
2022/07/22 02:23:45;;;;;;;13.32;2.75;;;17.00;99.90;;;;;;4836250;29;36540;-58
2022/07/22 02:26:13;;;;;;;9.02;2.38;;;17.00;99.90;;;;;;4834717;29;37512;-58
2022/07/22 02:28:40;;;;;;;10.55;2.00;;;17.00;99.90;;;;;;4836488;29;36402;-58
2022/07/22 02:31:08;;;;;;;8.90;1.75;;;17.00;99.90;;;;;;4835349;29;38547;-58
2022/07/22 02:33:36;;;;;;;7.03;1.67;;;17.00;99.90;;;;;;4836263;29;36761;-58
2022/07/22 02:36:04;;;;;;;6.00;1.50;;;17.00;99.90;;;;;;4836124;29;37293;-58
2022/07/22 02:38:33;;;;;;;7.43;1.63;;;17.00;99.90;;;;;;4836552;29;36395;-58
2022/07/22 02:41:01;;;;;;;6.03;1.70;;;17.00;99.90;;;;;;4836636;29;38595;-58
2022/07/22 02:43:28;;;;;;;6.38;1.40;;;17.00;99.90;;;;;;4835352;29;36537;-58
2022/07/22 02:45:56;;;;;;;4.72;1.60;;;17.00;99.90;;;;;;4836098;29;39099;-58
2022/07/22 02:48:24;;;;;;;5.88;2.03;;;17.00;99.90;;;;;;4835321;29;37497;-58
2022/07/22 02:50:52;;;;;;;6.20;1.35;;;17.00;99.90;;;;;;4836078;29;37945;-58
2022/07/22 02:53:19;;;;;;;5.50;1.45;;;16.90;99.90;;;;;;4835420;29;37250;-58
2022/07/22 02:55:46;;;;;;;5.75;1.30;;;16.90;99.90;;;;;;4836470;29;37575;-58
2022/07/22 02:58:14;;;;;;;5.35;1.55;;;16.90;99.90;;;;;;4836087;29;37992;-58
2022/07/22 03:00:41;;;;;;;6.38;1.70;;;16.90;99.90;;;;;;4835369;29;37205;-58
2022/07/22 03:03:08;;;;;;;9.73;2.28;;;16.90;99.90;;;;;;4836963;29;36374;-58
2022/07/22 03:05:37;;;;;;;6.75;1.73;;;16.90;99.90;;;;;;4835748;29;37909;-58
2022/07/22 03:08:05;;;;;;;5.40;1.50;;;16.80;99.90;;;;;;4837686;29;38661;-58
2022/07/22 03:10:32;;;;;;;8.95;1.92;;;16.80;99.90;;;;;;4840363;29;36959;-58
2022/07/22 03:12:59;;;;;;;7.45;1.80;;;16.80;99.90;;;;;;4838772;29;36488;-58
2022/07/22 03:15:30;;;;;;;7.05;1.77;;;16.80;99.90;;;;;;4838552;29;37851;-58
2022/07/22 03:17:57;;;;;;;5.45;1.58;;;16.80;99.90;;;;;;4839916;29;37585;-59
2022/07/22 03:20:24;;;;;;;3.45;1.10;;;16.80;99.90;;;;;;4840033;29;37165;-58
2022/07/22 03:22:53;;;;;;;5.93;1.48;;;16.70;99.90;;;;;;4840251;29;36554;-58
2022/07/22 03:25:21;;;;;;;4.78;1.35;;;16.70;99.90;;;;;;4831279;29;37649;-58
2022/07/22 03:27:48;;;;;;;6.28;1.50;;;16.70;99.90;;;;;;4844681;29;36306;-57
2022/07/22 03:30:15;;;;;;;5.85;1.70;;;16.70;99.90;;;;;;4834294;29;39558;-59
2022/07/22 03:32:44;;;;;;;5.20;1.80;;;16.70;99.90;;;;;;4834487;29;36112;-58
2022/07/22 03:35:12;;;;;;;5.00;1.70;;;16.70;99.90;;;;;;4834827;29;39102;-58
2022/07/22 03:37:39;;;;;;;4.75;1.70;;;16.70;99.90;;;;;;4834541;29;37581;-57
2022/07/22 03:40:10;;;;;;;6.55;1.92;;;16.70;99.90;;;;;;4833680;29;38358;-58
2022/07/22 03:42:37;;;;;;;7.18;1.73;;;16.70;99.90;;;;;;4833942;29;37644;-58
2022/07/22 03:45:05;;;;;;;6.55;1.65;;;16.70;99.90;;;;;;4834835;29;37278;-58
2022/07/22 03:47:32;;;;;;;7.68;1.95;;;16.70;99.90;;;;;;4836154;29;38753;-58
2022/07/22 03:50:01;;;;;;;7.70;1.73;;;16.70;99.90;;;;;;4836251;29;38686;-58
2022/07/22 03:52:29;;;;;;;7.28;1.63;;;16.70;99.90;;;;;;4832912;29;36627;-58
2022/07/22 03:54:56;;;;;;;6.35;2.00;;;16.70;99.90;;;;;;4834540;29;37683;-58
2022/07/22 03:57:25;;;;;;;6.38;1.70;;;16.70;99.90;;;;;;4833229;29;38486;-58
2022/07/22 03:59:52;;;;;;;7.15;1.90;;;16.70;99.90;;;;;;4833821;29;37130;-58
2022/07/22 04:02:20;;;;;;;8.30;1.58;;;16.70;99.90;;;;;;4835920;29;37489;-58
2022/07/22 04:04:47;;;;;;;5.70;1.60;;;16.70;99.90;;;;;;4834367;29;38058;-58
2022/07/22 04:07:14;;;;;;;6.00;1.70;;;16.70;99.90;;;;;;4833557;29;39241;-58
2022/07/22 04:09:41;;;;;;;6.10;1.60;;;16.70;99.90;;;;;;4833675;29;37332;-58
2022/07/22 04:12:09;;;;;;;4.95;1.73;;;16.70;99.90;;;;;;4834307;29;37007;-58
2022/07/22 04:14:38;;;;;;;5.85;1.75;;;16.70;99.90;;;;;;4834684;29;37151;-59
2022/07/22 04:17:05;;;;;;;9.20;2.40;;;16.80;99.90;;;;;;4836276;29;36487;-58
2022/07/22 04:19:33;;;;;;;10.20;1.80;;;16.70;99.90;;;;;;4833924;29;38302;-59
2022/07/22 04:22:00;;;;;;;4.85;1.38;;;16.70;99.90;;;;;;4833872;29;36612;-58
2022/07/22 04:24:27;;;;;;;3.60;1.40;;;16.70;99.90;;;;;;4834213;29;37536;-58
2022/07/22 04:26:55;;;;;;;5.53;1.75;;;16.70;99.90;;;;;;4834560;29;38254;-58
2022/07/22 04:29:22;;;;;;;6.50;1.77;;;16.80;99.90;;;;;;4834503;29;37181;-58
2022/07/22 04:31:51;;;;;;;5.82;1.40;;;16.80;99.90;;;;;;4837049;29;36763;-58
2022/07/22 04:34:18;;;;;;;6.82;1.58;;;16.80;99.90;;;;;;4835340;29;37968;-58
2022/07/22 04:36:47;;;;;;;6.53;1.58;;;16.80;99.90;;;;;;4835355;29;20137;-58
2022/07/22 04:39:15;;;;;;;8.38;1.48;;;16.80;99.90;;;;;;4835724;29;38977;-58
2022/07/22 04:41:42;;;;;;;6.88;1.60;;;16.80;99.90;;;;;;4834725;29;36619;-58
2022/07/22 04:44:09;;;;;;;5.20;1.58;;;16.80;99.90;;;;;;4835157;29;37193;-58
2022/07/22 04:46:37;;;;;;;11.25;1.85;;;16.80;99.90;;;;;;4834920;29;37673;-58
2022/07/22 04:49:05;;;;;;;6.35;1.52;;;16.80;99.90;;;;;;4836350;29;37212;-58
2022/07/22 04:51:33;;;;;;;3.95;1.42;;;16.80;99.90;;;;;;4834775;29;35007;-58
2022/07/22 04:54:00;;;;;;;6.88;1.80;;;16.80;99.90;;;;;;4839474;29;37555;-58
2022/07/22 04:56:27;;;;;;;5.95;1.30;;;16.80;99.90;;;;;;4840003;29;37506;-58
2022/07/22 04:58:55;;;;;;;5.35;1.38;;;16.80;99.90;;;;;;4838067;29;36045;-58
2022/07/22 05:01:22;;;;;;;7.15;1.50;;;16.80;99.90;;;;;;4838455;29;36980;-58
2022/07/22 05:03:50;;;;;;;6.90;1.50;;;16.80;99.90;;;;;;4838363;29;38295;-58
2022/07/22 05:06:19;;;;;;;7.07;1.48;;;16.80;99.90;;;;;;4839355;29;38811;-57
2022/07/22 05:08:46;;;;;;;4.93;1.38;;;16.80;99.90;;;;;;4838443;29;37301;-58
2022/07/22 05:11:14;;;;;;;3.70;1.13;;;16.80;99.90;;;;;;4840225;29;36502;-58
2022/07/22 05:13:41;;;;;;;10.13;1.30;;;16.80;99.90;;;;;;4838491;29;37424;-58
2022/07/22 05:16:08;;;;;;;5.47;1.67;;;16.90;99.90;;;;;;4838770;29;36352;-58
2022/07/22 05:18:36;;;;;;;6.25;1.77;;;16.90;99.90;;;;;;4839617;29;37492;-59
2022/07/22 05:21:04;;;;;;;6.88;1.55;;;16.90;99.90;;;;;;4838404;29;36847;-58
2022/07/22 05:23:32;;;;;;;5.13;1.50;;;16.90;99.90;;;;;;4837291;29;38210;-58
2022/07/22 05:26:00;;;;;;;6.55;1.58;;;16.90;99.90;;;;;;4836801;29;37727;-58
2022/07/22 05:28:27;;;;;;;5.72;1.42;;;16.90;99.90;;;;;;4836870;29;39972;-58
2022/07/22 05:30:54;;;;;;;10.40;2.15;;;16.90;99.90;;;;;;4838975;29;37005;-57
2022/07/22 05:33:22;;;;;;;6.43;1.80;;;17.00;99.90;;;;;;4836838;29;36444;-58
2022/07/22 05:35:49;;;;;;;6.57;1.50;;;17.00;99.90;;;;;;4836365;29;38267;-58
2022/07/22 05:38:16;;;;;;;7.40;1.40;;;17.00;99.90;;;;;;4838916;29;38632;-59
2022/07/22 05:40:45;;;;;;;6.68;1.48;;;17.00;99.90;;;;;;4839333;29;36653;-58
2022/07/22 05:43:13;;;;;;;16.60;2.25;;;17.00;99.90;;;;;;4839470;29;37395;-58
2022/07/22 05:45:40;;;;;;;8.77;1.95;;;17.00;99.90;;;;;;4838676;29;37877;-58
2022/07/22 05:48:07;;;;;;;5.47;1.48;;;17.00;99.90;;;;;;4837933;29;37779;-58
2022/07/22 05:50:36;;;;;;;8.30;1.70;;;17.00;99.90;;;;;;4839871;29;35242;-58
2022/07/22 05:53:03;;;;;;;6.40;1.60;;;17.10;99.90;;;;;;4839119;29;37752;-58
2022/07/22 05:55:31;;;;;;;5.70;2.35;;;17.10;99.90;;;;;;4836879;29;37930;-58
2022/07/22 05:57:59;;;;;;;11.55;1.85;;;17.10;99.90;;;;;;4838518;29;37767;-58
2022/07/22 06:00:27;;;;;;;5.75;1.17;;;17.10;99.90;;;;;;4838625;29;36699;-58
2022/07/22 06:02:54;;;;;;;9.52;1.52;;;17.10;99.90;;;;;;4837222;29;37352;-58
2022/07/22 06:05:22;;;;;;;5.85;1.30;;;17.20;99.90;;;;;;4837427;29;37786;-58
2022/07/22 06:07:49;;;;;;;8.45;1.85;;;17.20;99.90;;;;;;4837514;29;37786;-58
2022/07/22 06:10:16;;;;;;;4.50;1.38;;;17.20;99.90;;;;;;4837367;29;35277;-58
2022/07/22 06:12:44;;;;;;;5.88;1.33;;;17.30;99.90;;;;;;4838644;29;37410;-58
2022/07/22 06:15:12;;;;;;;6.00;1.52;;;17.30;99.90;;;;;;4837312;29;37246;-58
2022/07/22 06:17:40;;;;;;;7.60;2.10;;;17.30;99.90;;;;;;4837053;29;38118;-59
2022/07/22 06:20:08;;;;;;;5.55;1.38;;;17.30;99.90;;;;;;4837605;29;36266;-58
2022/07/22 06:22:36;;;;;;;5.57;1.30;;;17.30;99.90;;;;;;4837775;29;38069;-58
2022/07/22 06:25:04;;;;;;;7.60;1.83;;;17.40;99.90;;;;;;4835168;29;39171;-58
2022/07/22 06:27:31;;;;;;;7.60;1.70;;;17.40;99.90;;;;;;4836455;29;37865;-57
2022/07/22 06:29:58;;;;;;;5.47;1.38;;;17.40;99.90;;;;;;4839185;29;35214;-58
2022/07/22 06:32:27;;;;;;;3.75;1.05;;;17.40;99.90;;;;;;4837959;29;37477;-58
2022/07/22 06:34:54;;;;;;;4.93;1.30;;;17.40;99.90;;;;;;4836814;29;38038;-59
2022/07/22 06:37:22;;;;;;;7.07;1.58;;;17.40;99.90;;;;;;4835272;29;37185;-59
2022/07/22 06:39:49;;;;;;;7.43;1.40;;;17.50;99.90;;;;;;4836718;29;36750;-58
2022/07/22 06:42:17;;;;;;;5.38;1.30;;;17.40;99.90;;;;;;4836806;29;38407;-58
2022/07/22 06:44:44;;;;;;;8.00;1.73;;;17.40;99.90;;;;;;4835917;29;38891;-58
2022/07/22 06:47:11;;;;;;;5.45;1.50;;;17.40;99.90;;;;;;4836198;29;37062;-58
2022/07/22 06:49:40;;;;;;;5.03;1.40;;;17.40;99.90;;;;;;4836610;29;37883;-58
2022/07/22 06:52:07;;;;;;;4.60;1.30;;;17.50;99.90;;;;;;4836335;29;38049;-58
2022/07/22 06:54:35;;;;;;;6.57;1.77;;;17.50;99.90;;;;;;4837603;29;36423;-58
2022/07/22 06:57:02;;;;;;;6.25;1.40;;;17.50;99.90;;;;;;4834962;29;37483;-58
2022/07/22 06:59:29;;;;;;;6.57;1.50;;;17.50;99.90;;;;;;4840984;29;34666;-59
2022/07/22 07:01:57;;;;;;;7.18;1.52;;;17.60;99.90;;;;;;4841546;29;36894;-58
2022/07/22 07:04:24;;;;;;;7.28;1.60;;;17.60;99.90;;;;;;4840697;29;38534;-57
2022/07/22 07:06:53;;;;;;;4.63;1.30;;;17.50;99.90;;;;;;4838642;29;37430;-58
2022/07/22 07:09:20;;;;;;;7.85;1.67;;;17.60;99.90;;;;;;4840722;29;36410;-58
2022/07/22 07:11:48;;;;;;;7.07;1.48;;;17.60;99.90;;;;;;4841225;29;36406;-58
2022/07/22 07:14:15;;;;;;;5.28;1.50;;;17.60;99.90;;;;;;4840784;29;38039;-58
2022/07/22 07:16:43;;;;;;;6.88;2.05;;;17.70;99.90;;;;;;4839847;29;38065;-58
2022/07/22 07:19:10;;;;;;;5.88;1.50;;;17.70;99.90;;;;;;4841335;29;37483;-59
2022/07/22 07:21:37;;;;;;;6.20;1.10;;;17.70;99.90;;;;;;4839034;29;38094;-58
2022/07/22 07:24:07;;;;;;;6.43;1.50;;;17.70;99.90;;;;;;4838782;29;38224;-58
2022/07/22 07:26:34;;;;;;;4.68;1.27;;;17.80;99.90;;;;;;4839783;29;37012;-58
2022/07/22 07:29:01;;;;;;;4.68;1.30;;;17.80;99.90;;;;;;4840545;29;35472;-59
2022/07/22 07:31:29;;;;;;;7.40;1.52;;;17.70;99.90;;;;;;4839806;29;37826;-58
2022/07/22 07:33:56;;;;;;;6.38;1.30;;;17.80;99.90;;;;;;4838389;29;38617;-58
2022/07/22 07:36:23;;;;;;;6.10;1.55;;;17.80;99.90;;;;;;4839997;29;36972;-57
2022/07/22 07:38:51;;;;;;;5.35;1.60;;;17.80;99.90;;;;;;4840572;29;37490;-58
2022/07/22 07:41:20;;;;;;;3.97;1.10;;;17.90;99.90;;;;;;4838718;29;38534;-57
2022/07/22 07:43:47;;;;;;;4.95;1.40;;;17.90;99.90;;;;;;4840608;29;38491;-58
2022/07/22 07:46:15;;;;;;;5.07;1.20;;;17.90;99.90;;;;;;4840399;29;38047;-58
2022/07/22 07:48:42;;;;;;;3.42;1.33;;;17.90;99.90;;;;;;4832876;29;36713;-59
2022/07/22 07:51:10;;;;;;;3.92;1.30;;;17.90;99.90;;;;;;4834113;29;38154;-59
2022/07/22 07:53:37;;;;;;;7.65;1.63;;;17.90;99.90;;;;;;4833738;29;37596;-59
2022/07/22 07:56:05;;;;;;;5.53;1.15;;;17.90;99.90;;;;;;4833558;29;37095;-59
2022/07/22 07:58:34;;;;;;;5.20;1.00;;;18.00;99.90;;;;;;4833457;29;37374;-59
2022/07/22 08:01:01;;;;;;;4.72;1.10;;;18.00;99.90;;;;;;4823135;29;37645;-59
2022/07/22 08:03:29;;;;;;;3.47;0.82;;;18.00;99.90;;;;;;4833320;29;37870;-59
2022/07/22 08:05:57;;;;;;;7.25;1.30;;;18.00;99.90;;;;;;4829098;29;37263;-59
2022/07/22 08:08:24;;;;;;;7.78;1.23;;;18.00;99.90;;;;;;4825879;29;36360;-59
2022/07/22 08:10:52;;;;;;;4.97;1.27;;;18.00;99.90;;;;;;4829592;29;37523;-63
2022/07/22 08:13:19;;;;;;;6.70;1.42;;;18.00;99.90;;;;;;4834137;29;39366;-63
2022/07/22 08:15:48;;;;;;;6.07;1.25;;;18.10;99.90;;;;;;4834928;29;37627;-62
2022/07/22 08:18:15;;;;;;;4.82;1.00;;;18.10;99.90;;;;;;4835136;29;37939;-62
2022/07/22 08:20:43;;;;;;;8.68;1.40;;;18.10;99.90;;;;;;4832965;29;37448;-62
2022/07/22 08:23:10;;;;;;;6.97;1.20;;;18.10;99.90;;;;;;4835616;29;37317;-62
2022/07/22 08:25:38;;;;;;;6.97;1.50;;;18.10;99.90;;;;;;4834556;29;37479;-62
2022/07/22 08:28:05;;;;;;;6.90;1.42;;;18.10;99.90;;;;;;4835063;29;36574;-63
2022/07/22 08:30:33;;;;;;;3.60;1.20;;;18.10;99.90;;;;;;4835105;29;37512;-63
2022/07/22 08:33:02;;;;;;;4.15;1.10;;;18.10;99.90;;;;;;4833001;29;36336;-62
2022/07/22 08:35:31;;;;;;;7.05;1.33;;;18.10;99.90;;;;;;4833794;29;37695;-62
2022/07/22 08:37:59;;;;;;;9.80;1.70;;;18.10;99.90;;;;;;4834989;29;35437;-62
2022/07/22 08:40:27;;;;;;;5.65;1.17;;;18.00;99.90;;;;;;4833996;29;39313;-63
2022/07/22 08:42:54;;;;;;;5.15;0.90;;;18.00;99.90;;;;;;4834387;29;38035;-63
2022/07/22 08:45:22;;;;;;;5.38;1.23;;;18.00;99.90;;;;;;4833242;29;37407;-63
2022/07/22 08:47:52;;;;;;;6.15;1.30;;;18.00;99.90;;;;;;4831421;29;37489;-62
2022/07/22 08:50:20;;;;;;;8.93;1.70;;;18.00;99.90;;;;;;4832839;29;37685;-63
2022/07/22 08:52:48;;;;;;;4.55;1.00;;;18.00;99.90;;;;;;4831352;29;38950;-62
2022/07/22 08:55:15;;;;;;;7.25;1.10;;;18.00;99.90;;;;;;4830031;29;38409;-62
2022/07/22 08:57:46;;;;;;;8.07;1.58;;;18.00;99.90;;;;;;4825826;29;35390;-62
2022/07/22 09:00:16;;;;;;;5.07;1.00;;;18.00;99.90;;;;;;4828063;29;39257;-63
2022/07/22 09:02:45;;;;;;;5.40;0.85;;;18.10;99.90;;;;;;4827388;29;37710;-63
2022/07/22 09:05:14;;;;;;;5.45;0.77;;;18.10;99.90;;;;;;4827247;29;37273;-62
2022/07/22 09:07:45;;;;;;;9.10;1.20;;;18.10;99.90;;;;;;4827254;29;36159;-63
2022/07/22 09:10:15;;;;;;;3.63;0.60;;;18.10;99.90;;;;;;4828598;29;38141;-62
2022/07/22 09:12:53;;;;;;;9.10;1.92;;;18.10;99.90;;;;;;4827815;29;38857;-61
2022/07/22 09:15:28;;;;;;;11.00;1.73;;;18.20;99.90;;;;;;4826351;29;38270;-61
2022/07/22 09:17:56;;;;;;;10.13;1.20;;;18.20;99.90;;;;;;4826863;29;36689;-62
2022/07/22 09:20:25;;;;;;;5.75;0.98;;;18.20;99.90;;;;;;4826283;29;37948;-61
2022/07/22 09:22:54;;;;;;;5.15;0.98;;;18.30;99.90;;;;;;4833356;29;37762;-61
2022/07/22 09:25:25;;;;;;;9.43;1.40;;;18.30;99.90;;;;;;4832676;29;37163;-61
2022/07/22 09:27:58;;;;;;;5.25;1.02;;;18.30;99.70;;;;;;4834519;29;36456;-61
2022/07/22 09:30:27;;;;;;;5.70;0.95;;;18.40;99.70;;;;;;4831577;29;38596;-61
2022/07/22 09:32:56;;;;;;;3.83;0.68;;;18.40;99.70;;;;;;4830423;29;36576;-61
2022/07/22 09:35:24;;;;;;;2.28;0.68;;;18.40;99.60;;;;;;4831978;29;37424;-61
2022/07/22 09:37:55;;;;;;;2.17;0.60;;;18.50;99.50;;;;;;4832426;29;36701;-61
2022/07/22 09:40:24;;;;;;;3.58;0.60;;;18.50;99.10;;;;;;4835201;29;37811;-61
2022/07/22 09:42:53;;;;;;;4.65;0.98;;;18.50;98.80;;;;;;4836555;29;37359;-61
2022/07/22 09:45:22;;;;;;;2.53;0.88;;;18.50;99.20;;;;;;4837213;29;38055;-61
2022/07/22 09:47:51;;;;;;;6.32;1.15;;;18.50;99.50;;;;;;4836324;29;36409;-61
2022/07/22 09:50:24;;;;;;;2.95;1.02;;;18.60;99.30;;;;;;4835428;29;37561;-61
2022/07/22 09:52:55;;;;;;;;;;;18.60;99.20;;;;;;4835489;29;37655;-61
2022/07/22 09:55:26;;;;;;;6.10;0.82;;;18.70;99.60;;;;;;4833190;29;36774;-62
2022/07/22 09:57:54;;;;;;;3.22;0.80;;;18.70;99.00;;;;;;4830449;29;36263;-61
2022/07/22 10:00:24;;;;;;;3.85;0.70;;;18.70;98.60;;;;;;4832594;29;39031;-61
2022/07/22 10:02:53;;;;;;;3.97;0.80;;;18.70;98.40;;;;;;4833834;29;36550;-61
2022/07/22 10:05:22;;;;;;;3.83;0.80;;;18.70;98.40;;;;;;4831741;29;37181;-61
2022/07/22 10:07:51;;;;;;;3.85;0.77;;;18.80;98.60;;;;;;4831789;29;36960;-61
2022/07/22 10:10:21;;;;;;;4.03;0.90;;;18.80;98.20;;;;;;4831756;29;37531;-61
2022/07/22 10:12:52;;;;;;;5.07;0.70;;;18.80;98.60;;;;;;4830935;29;37797;-61
2022/07/22 10:15:20;;;;;;;2.80;0.73;;;18.80;98.50;;;;;;4832817;29;37952;-62
2022/07/22 10:17:50;;;;;;;2.10;0.63;;;18.80;98.10;;;;;;4831616;29;37613;-61
2022/07/22 10:20:19;;;;;;;4.43;0.90;;;18.70;98.20;;;;;;4829016;29;36214;-62
2022/07/22 10:22:52;;;;;;;4.00;0.73;;;18.70;98.40;;;;;;4827458;29;37833;-63
2022/07/22 10:25:20;;;;;;;3.10;0.80;;;18.70;98.50;;;;;;4826953;29;38394;-61
2022/07/22 10:27:51;;;;;;;9.02;1.08;;;18.60;98.70;;;;;;4829479;29;36466;-61
2022/07/22 10:30:21;;;;;;;2.50;0.90;;;18.60;98.90;;;;;;4827851;29;39272;-61
2022/07/22 10:33:12;;;;;;;3.65;0.80;;;18.60;98.80;;;;;;4830416;29;37258;-61
2022/07/22 10:35:56;;;;;;;5.95;1.10;;;18.60;98.90;;;;;;4828649;29;37427;-61
2022/07/22 10:38:24;;;;;;;4.85;1.15;;;18.60;99.00;;;;;;4828373;29;37055;-61
2022/07/22 10:40:55;;;;;;;4.30;1.52;;;18.60;99.30;;;;;;4827729;29;36944;-61
2022/07/22 10:43:25;;;;;;;3.45;0.80;;;18.60;99.50;;;;;;4828946;29;36924;-61
2022/07/22 10:45:55;;;;;;;5.32;1.42;;;18.70;99.50;;;;;;4826212;29;38732;-61
2022/07/22 10:48:26;;;;;;;4.28;0.88;;;18.70;99.60;;;;;;4829499;29;37587;-60
2022/07/22 10:51:12;;;;;;;1.77;0.88;;;18.70;99.40;;;;;;4831014;29;37812;-61
2022/07/22 10:53:45;;;;;;;2.50;0.68;;;18.70;99.00;;;;;;4829489;29;37238;-61
2022/07/22 10:56:14;;;;;;;;;;;18.80;99.10;;;;;;4829686;29;38023;-60
2022/07/22 10:58:54;;;;;;;5.32;1.02;;;18.80;98.50;;;;;;4829250;29;37728;-61
2022/07/22 11:01:31;;;;;;;3.42;0.80;;;18.80;98.80;;;;;;4830257;29;39046;-61
2022/07/22 11:04:13;;;;;;;3.78;1.27;;;18.90;98.90;;;;;;4829309;29;36432;-61
2022/07/22 11:06:41;;;;;;;3.65;0.80;;;18.90;98.80;;;;;;4829219;29;38474;-61
2022/07/22 11:09:10;;;;;;;3.17;0.80;;;18.90;98.80;;;;;;4816301;29;36523;-61
2022/07/22 11:11:42;;;;;;;4.80;1.00;;;18.90;98.90;;;;;;4815836;29;37486;-61
2022/07/22 11:14:20;;;;;;;3.73;1.00;;;19.00;98.70;;;;;;4815571;29;37233;-61
2022/07/22 11:16:48;;;;;;;1.95;0.57;;;19.00;98.70;;;;;;4816254;29;38677;-61
2022/07/22 11:19:21;;;;;;;4.88;0.88;;;19.10;98.70;;;;;;4816694;29;36864;-61
2022/07/22 11:21:52;;;;;;;4.85;0.80;;;19.10;99.00;;;;;;4816508;29;36164;-61
2022/07/22 11:24:21;;;;;;;1.50;0.57;;;19.10;98.70;;;;;;4809983;29;36711;-61
2022/07/22 11:26:50;;;;;;;2.20;0.60;;;19.10;98.80;;;;;;4816274;29;38104;-61
2022/07/22 11:29:26;;;;;;;1.27;0.40;;;19.10;98.50;;;;;;4817149;29;38376;-61
2022/07/22 11:31:55;;;;;;;4.18;0.60;;;19.20;98.10;;;;;;4816477;29;37585;-61
2022/07/22 11:34:23;;;;;;;2.90;0.75;;;19.20;97.70;;;;;;4816520;29;38618;-60
2022/07/22 11:36:52;;;;;;;2.33;0.43;;;19.20;97.50;;;;;;4817592;29;37398;-60
2022/07/22 11:39:21;;;;;;;1.25;0.30;;;19.20;97.20;;;;;;4817244;29;35433;-60
2022/07/22 11:41:48;;;;;;;2.63;0.50;;;19.20;97.20;;;;;;4817951;29;38444;-60
2022/07/22 11:44:20;;;;;;;3.97;0.85;;;19.20;97.40;;;;;;4818188;29;38610;-60
2022/07/22 11:46:48;;;;;;;2.53;0.70;;;19.20;97.80;;;;;;4818049;29;37111;-60
2022/07/22 11:49:18;;;;;;;3.25;0.68;;;19.30;97.40;;;;;;4818147;29;39083;-60
2022/07/22 11:51:45;;;;;;;3.75;0.80;;;19.30;97.30;;;;;;4817792;29;36319;-60
2022/07/22 11:54:13;;;;;;;1.65;0.50;;;19.30;97.10;;;;;;4817829;29;38319;-60
2022/07/22 11:56:40;;;;;;;3.25;0.50;;;19.30;97.00;;;;;;4817618;29;37125;-61
2022/07/22 11:59:12;;;;;;;2.15;0.52;;;19.30;96.90;;;;;;4817468;29;37367;-61
2022/07/22 12:01:41;;;;;;;5.80;0.70;;;19.30;97.20;;;;;;4818832;29;37384;-60
2022/07/22 12:04:10;;;;;;;1.60;0.55;;;19.20;96.90;;;;;;4817866;29;37659;-60
2022/07/22 12:06:40;;;;;;;2.65;0.47;;;19.20;97.00;;;;;;4817784;29;38418;-60
2022/07/22 12:09:10;;;;;;;2.13;0.50;;;19.20;96.70;;;;;;4818724;29;36536;-60
2022/07/22 12:11:40;;;;;;;3.15;0.60;;;19.20;96.40;;;;;;4817131;29;37946;-60
2022/07/22 12:14:10;;;;;;;3.05;0.60;;;19.20;96.70;;;;;;4818213;29;36475;-60
2022/07/22 12:16:38;;;;;;;3.20;0.65;;;19.20;96.80;;;;;;4817641;29;37762;-60
2022/07/22 12:19:10;;;;;;;1.52;0.32;;;19.10;96.70;;;;;;4817435;29;37536;-60
2022/07/22 12:21:50;;;;;;;2.70;0.45;;;19.20;96.50;;;;;;4817934;29;38007;-60
2022/07/22 12:24:27;;;;;;;4.25;0.63;;;19.20;96.30;;;;;;4817680;29;38484;-60
2022/07/22 12:26:55;;;;;;;3.08;0.60;;;19.20;96.60;;;;;;4817477;29;36758;-61
2022/07/22 12:29:26;;;;;;;2.63;0.68;;;19.20;96.40;;;;;;4817635;29;37658;-60
2022/07/22 12:31:55;;;;;;;1.83;0.47;;;19.20;96.10;;;;;;4817405;29;39733;-60
2022/07/22 12:34:36;;;;;;;2.15;0.50;;;19.20;96.50;;;;;;4817297;29;38470;-60
2022/07/22 12:37:15;;;;;;;2.50;0.60;;;19.20;96.60;;;;;;4817515;29;37644;-60
2022/07/22 12:40:01;;;;;;;3.85;1.27;;;19.30;96.00;;;;;;4817608;29;37626;-60
2022/07/22 12:42:31;;;;;;;1.67;0.50;;;19.30;96.00;;;;;;4816045;29;37741;-60
2022/07/22 12:45:05;;;;;;;3.85;1.35;;;19.30;95.90;;;;;;4817068;29;38147;-60
2022/07/22 12:47:45;;;;;;;3.05;0.63;;;19.30;95.90;;;;;;4816947;29;37237;-60
2022/07/22 12:50:22;;;;;;;3.30;0.60;;;19.30;96.20;;;;;;4816528;29;37020;-60
2022/07/22 12:52:50;;;;;;;1.25;0.57;;;19.40;95.90;;;;;;4817108;29;38041;-60